createdAt,value
2017-12-08T00:00:19.285Z,86.37
2017-12-08T00:02:47.534Z,74.67
2017-12-08T00:05:16.518Z,76.73
2017-12-08T00:07:45.519Z,77.17
2017-12-08T00:10:13.739Z,74.93
2017-12-08T00:12:41.981Z,73.47
2017-12-08T00:15:10.210Z,93.07
2017-12-08T00:17:39.245Z,78.97
2017-12-08T00:20:07.469Z,80.53
2017-12-08T00:22:35.698Z,96.17
2017-12-08T00:25:03.912Z,85.07
2017-12-08T00:27:32.960Z,97.97
2017-12-08T00:30:01.179Z,93.20
2017-12-08T00:32:29.421Z,96.50
2017-12-08T00:34:57.642Z,80.13
2017-12-08T00:37:25.870Z,74.00
2017-12-08T00:39:54.124Z,70.50
2017-12-08T00:42:22.338Z,75.60
2017-12-08T00:44:50.554Z,74.60
2017-12-08T00:47:18.787Z,83.23
2017-12-08T00:49:47.042Z,67.57
2017-12-08T00:52:15.249Z,75.60
2017-12-08T00:54:44.284Z,75.80
2017-12-08T00:57:12.522Z,83.00
2017-12-08T00:59:40.759Z,82.73
2017-12-08T01:02:08.968Z,83.70
2017-12-08T01:04:37.206Z,74.90
2017-12-08T01:07:05.426Z,86.67
2017-12-08T01:09:33.706Z,88.20
2017-12-08T01:12:02.205Z,51.40
2017-12-08T01:14:31.187Z,46.70
2017-12-08T01:16:59.487Z,45.33
2017-12-08T01:19:27.715Z,49.10
2017-12-08T01:21:55.929Z,83.13
2017-12-08T01:24:25.118Z,74.53
2017-12-08T01:26:54.110Z,80.90
2017-12-08T01:29:23.099Z,67.20
2017-12-08T01:31:52.114Z,75.93
2017-12-08T01:34:20.330Z,70.20
2017-12-08T01:36:48.546Z,66.70
2017-12-08T01:39:17.542Z,51.10
2017-12-08T01:41:45.784Z,73.77
2017-12-08T01:44:14.932Z,77.00
2017-12-08T01:46:43.155Z,63.83
2017-12-08T01:49:11.432Z,66.17
2017-12-08T01:51:40.034Z,67.30
2017-12-08T01:54:09.038Z,58.73
2017-12-08T01:56:38.041Z,49.10
2017-12-08T01:59:06.331Z,56.33
2017-12-08T02:01:34.559Z,93.60
2017-12-08T02:04:02.789Z,36.30
2017-12-08T02:06:31.041Z,81.33
2017-12-08T02:08:59.258Z,56.90
2017-12-08T02:11:27.504Z,69.33
2017-12-08T02:13:55.726Z,69.20
2017-12-08T02:16:24.045Z,68.27
2017-12-08T02:18:52.262Z,78.53
2017-12-08T02:21:20.497Z,56.33
2017-12-08T02:23:49.482Z,37.70
2017-12-08T02:26:18.466Z,30.47
2017-12-08T02:28:46.710Z,37.40
2017-12-08T02:31:15.736Z,50.40
2017-12-08T02:33:45.417Z,19.23
2017-12-08T02:36:13.631Z,19.13
2017-12-08T02:38:41.869Z,91.30
2017-12-08T02:41:10.113Z,85.80
2017-12-08T02:43:38.423Z,84.10
2017-12-08T02:46:07.426Z,21.20
2017-12-08T02:48:36.443Z,21.47
2017-12-08T02:51:04.643Z,22.10
2017-12-08T02:53:32.877Z,94.13
2017-12-08T02:56:02.164Z,103.50
2017-12-08T02:58:31.166Z,25.97
2017-12-08T03:01:00.153Z,92.63
2017-12-08T03:03:29.120Z,76.67
2017-12-08T03:05:57.344Z,74.03
2017-12-08T03:08:25.609Z,97.07
2017-12-08T03:10:53.846Z,76.03
2017-12-08T03:13:22.159Z,87.17
2017-12-08T03:15:50.396Z,77.30
2017-12-08T03:18:18.721Z,97.43
2017-12-08T03:20:46.985Z,81.67
2017-12-08T03:23:15.206Z,70.23
2017-12-08T03:25:43.429Z,70.40
2017-12-08T03:28:17.698Z,91.97
2017-12-08T03:30:45.923Z,97.50
2017-12-08T03:33:14.156Z,92.00
2017-12-08T03:35:42.376Z,82.73
2017-12-08T03:38:10.657Z,87.40
2017-12-08T03:40:38.930Z,96.93
2017-12-08T03:43:07.174Z,87.43
2017-12-08T03:45:36.198Z,94.70
2017-12-08T03:48:04.457Z,81.50
2017-12-08T03:50:32.686Z,92.97
2017-12-08T03:53:01.710Z,90.80
2017-12-08T03:55:31.384Z,92.07
2017-12-08T03:57:59.597Z,28.60
2017-12-08T04:00:28.594Z,24.73
2017-12-08T04:02:57.585Z,94.97
2017-12-08T04:05:26.591Z,30.33
2017-12-08T04:07:55.035Z,29.13
2017-12-08T04:10:24.066Z,164.27
2017-12-08T04:12:52.300Z,166.40
2017-12-08T04:15:21.335Z,27.43
2017-12-08T04:17:49.551Z,24.63
2017-12-08T04:20:17.806Z,22.17
2017-12-08T04:22:46.032Z,23.10
2017-12-08T04:25:15.023Z,23.43
2017-12-08T04:27:44.038Z,89.00
2017-12-08T04:30:13.012Z,28.57
2017-12-08T04:32:42.013Z,29.53
2017-12-08T04:35:10.998Z,25.23
2017-12-08T04:37:39.275Z,51.63
2017-12-08T04:40:07.479Z,30.33
2017-12-08T04:42:36.567Z,101.13
2017-12-08T04:45:04.802Z,30.10
2017-12-08T04:47:33.823Z,24.10
2017-12-08T04:50:02.794Z,29.30
2017-12-08T04:52:31.786Z,25.03
2017-12-08T04:55:00.810Z,23.93
2017-12-08T04:57:29.035Z,27.60
2017-12-08T04:59:57.272Z,31.03
2017-12-08T05:02:25.511Z,98.57
2017-12-08T05:04:54.526Z,27.03
2017-12-08T05:07:22.801Z,23.90
2017-12-08T05:09:51.049Z,20.83
2017-12-08T05:12:19.261Z,18.80
2017-12-08T05:14:47.474Z,23.70
2017-12-08T05:17:16.501Z,20.43
2017-12-08T05:19:44.738Z,19.70
2017-12-08T05:22:13.117Z,21.27
2017-12-08T05:24:41.351Z,72.90
2017-12-08T05:27:09.579Z,24.43
2017-12-08T05:29:37.853Z,23.67
2017-12-08T05:32:06.868Z,30.33
2017-12-08T05:34:35.861Z,38.00
2017-12-08T05:37:04.090Z,64.73
2017-12-08T05:39:32.333Z,27.70
2017-12-08T05:42:00.559Z,50.93
2017-12-08T05:44:28.819Z,86.87
2017-12-08T05:46:57.025Z,87.53
2017-12-08T05:49:26.064Z,81.90
2017-12-08T05:51:54.306Z,76.87
2017-12-08T05:54:22.550Z,80.93
2017-12-08T05:56:50.769Z,86.87
2017-12-08T05:59:18.998Z,81.47
2017-12-08T06:01:47.221Z,91.67
2017-12-08T06:04:15.461Z,90.27
2017-12-08T06:06:43.729Z,101.90
2017-12-08T06:09:11.949Z,90.77
2017-12-08T06:11:40.818Z,94.53
2017-12-08T06:14:09.807Z,78.53
2017-12-08T06:16:38.018Z,87.63
2017-12-08T06:19:06.273Z,85.40
2017-12-08T06:21:34.523Z,92.17
2017-12-08T06:24:02.749Z,84.47
2017-12-08T06:26:30.986Z,75.13
2017-12-08T06:28:59.257Z,81.57
2017-12-08T06:31:27.471Z,83.93
2017-12-08T06:33:55.712Z,98.50
2017-12-08T06:36:24.715Z,116.87
2017-12-08T06:38:53.012Z,99.63
2017-12-08T06:41:21.232Z,65.43
2017-12-08T06:43:49.458Z,64.33
2017-12-08T06:46:17.703Z,19.40
2017-12-08T06:48:47.313Z,22.43
2017-12-08T06:51:16.314Z,21.97
2017-12-08T06:53:44.558Z,20.70
2017-12-08T06:56:13.612Z,21.73
2017-12-08T06:58:41.822Z,95.50
2017-12-08T07:01:10.083Z,95.13
2017-12-08T07:03:38.369Z,19.90
2017-12-08T07:06:06.551Z,29.67
2017-12-08T07:08:34.841Z,24.40
2017-12-08T07:11:03.832Z,23.50
2017-12-08T07:13:32.312Z,20.77
2017-12-08T07:16:01.353Z,22.20
2017-12-08T07:18:29.591Z,27.67
2017-12-08T07:20:58.577Z,27.60
2017-12-08T07:23:27.620Z,22.50
2017-12-08T07:25:55.823Z,22.67
2017-12-08T07:28:24.082Z,22.00
2017-12-08T07:30:52.595Z,96.10
2017-12-08T07:33:21.693Z,108.93
2017-12-08T07:35:49.894Z,23.27
2017-12-08T07:38:18.112Z,128.87
2017-12-08T07:40:46.354Z,108.63
2017-12-08T07:43:14.598Z,34.70
2017-12-08T07:45:43.072Z,98.70
2017-12-08T07:48:12.154Z,18.33
2017-12-08T07:50:40.375Z,105.03
2017-12-08T07:53:08.622Z,20.03
2017-12-08T07:55:36.878Z,20.90
2017-12-08T07:58:05.134Z,21.90
2017-12-08T08:00:33.371Z,109.20
2017-12-08T08:03:01.630Z,40.80
2017-12-08T08:05:29.857Z,26.57
2017-12-08T08:07:58.082Z,21.67
2017-12-08T08:10:26.307Z,21.50
2017-12-08T08:12:54.573Z,24.53
2017-12-08T08:15:22.851Z,22.33
2017-12-08T08:17:51.789Z,19.90
2017-12-08T08:20:20.773Z,25.37
2017-12-08T08:22:49.010Z,25.83
2017-12-08T08:25:17.249Z,23.00
2017-12-08T08:27:45.494Z,22.73
2017-12-08T08:30:14.521Z,21.83
2017-12-08T08:32:42.750Z,96.90
2017-12-08T08:35:15.816Z,104.17
2017-12-08T08:37:44.080Z,97.43
2017-12-08T08:40:12.283Z,113.57
2017-12-08T08:42:40.605Z,115.83
2017-12-08T08:45:09.578Z,98.80
2017-12-08T08:47:37.810Z,87.00
2017-12-08T08:50:06.037Z,100.93
2017-12-08T08:52:34.281Z,103.63
2017-12-08T08:55:02.524Z,117.73
2017-12-08T08:57:30.761Z,112.30
2017-12-08T08:59:59.322Z,109.87
2017-12-08T09:02:28.331Z,106.00
2017-12-08T09:04:56.567Z,98.57
2017-12-08T09:07:24.802Z,114.10
2017-12-08T09:09:53.041Z,102.60
2017-12-08T09:12:21.384Z,101.10
2017-12-08T09:14:49.622Z,117.90
2017-12-08T09:17:17.890Z,112.13
2017-12-08T09:19:46.150Z,103.17
2017-12-08T09:22:15.156Z,114.60
2017-12-08T09:24:43.395Z,98.50
2017-12-08T09:27:11.663Z,94.50
2017-12-08T09:29:39.914Z,106.03
2017-12-08T09:32:08.165Z,108.00
2017-12-08T09:34:36.401Z,35.70
2017-12-08T09:37:05.395Z,18.50
2017-12-08T09:39:33.665Z,34.70
2017-12-08T09:42:01.878Z,48.60
2017-12-08T09:44:30.130Z,35.20
2017-12-08T09:46:58.353Z,41.10
2017-12-08T09:49:26.590Z,17.47
2017-12-08T09:51:55.060Z,22.93
2017-12-08T09:54:24.051Z,39.83
2017-12-08T09:56:52.279Z,55.83
2017-12-08T09:59:20.506Z,24.60
2017-12-08T10:01:48.751Z,42.13
2017-12-08T10:04:16.986Z,21.33
2017-12-08T10:06:45.253Z,13.90
2017-12-08T10:09:13.484Z,13.13
2017-12-08T10:11:42.520Z,16.90
2017-12-08T10:14:10.735Z,14.67
2017-12-08T10:16:39.062Z,33.57
2017-12-08T10:19:07.329Z,68.27
2017-12-08T10:21:35.556Z,52.33
2017-12-08T10:24:04.608Z,79.10
2017-12-08T10:26:32.838Z,20.33
2017-12-08T10:29:01.108Z,49.20
2017-12-08T10:31:30.222Z,56.80
2017-12-08T10:33:58.438Z,20.10
2017-12-08T10:36:27.829Z,31.20
2017-12-08T10:38:56.042Z,33.97
2017-12-08T10:41:24.281Z,25.33
2017-12-08T10:43:52.515Z,21.17
2017-12-08T10:46:21.519Z,71.50
2017-12-08T10:48:49.771Z,70.67
2017-12-08T10:51:18.003Z,17.80
2017-12-08T10:53:46.226Z,92.90
2017-12-08T10:56:15.245Z,97.47
2017-12-08T10:58:43.488Z,64.20
2017-12-08T11:01:11.738Z,61.63
2017-12-08T11:03:39.950Z,69.37
2017-12-08T11:06:08.446Z,32.77
2017-12-08T11:08:36.679Z,26.00
2017-12-08T11:11:04.944Z,85.40
2017-12-08T11:13:33.167Z,33.30
2017-12-08T11:16:02.150Z,71.83
2017-12-08T11:18:30.398Z,77.00
2017-12-08T11:20:59.531Z,63.77
2017-12-08T11:23:27.730Z,55.37
2017-12-08T11:25:55.975Z,36.87
2017-12-08T11:28:24.990Z,27.07
2017-12-08T11:30:53.558Z,30.10
2017-12-08T11:33:21.853Z,58.77
2017-12-08T11:35:50.275Z,42.93
2017-12-08T11:38:18.538Z,35.73
2017-12-08T11:40:46.766Z,15.70
2017-12-08T11:43:15.763Z,27.43
2017-12-08T11:45:44.005Z,54.37
2017-12-08T11:48:12.933Z,39.73
2017-12-08T11:50:41.881Z,35.60
2017-12-08T11:53:10.825Z,34.53
2017-12-08T11:55:39.113Z,56.00
2017-12-08T11:58:07.442Z,26.63
2017-12-08T12:00:35.756Z,32.00
2017-12-08T12:03:05.027Z,24.43
2017-12-08T12:05:34.046Z,49.73
2017-12-08T12:08:02.314Z,41.87
2017-12-08T12:10:30.558Z,60.37
2017-12-08T12:12:58.774Z,27.37
2017-12-08T12:15:27.037Z,32.20
2017-12-08T12:17:55.346Z,27.87
2017-12-08T12:20:23.618Z,80.40
2017-12-08T12:22:51.919Z,68.10
2017-12-08T12:25:20.182Z,35.67
2017-12-08T12:27:48.416Z,31.10
2017-12-08T12:30:17.401Z,55.43
2017-12-08T12:32:45.689Z,70.17
2017-12-08T12:35:14.992Z,79.97
2017-12-08T12:37:43.782Z,59.50
2017-12-08T12:40:13.245Z,70.17
2017-12-08T12:42:41.866Z,94.57
2017-12-08T12:45:10.089Z,101.20
2017-12-08T12:47:38.424Z,87.23
2017-12-08T12:50:06.981Z,63.70
2017-12-08T12:52:35.307Z,38.87
2017-12-08T12:55:03.551Z,72.53
2017-12-08T12:57:31.895Z,67.90
2017-12-08T13:00:01.537Z,60.83
2017-12-08T13:02:29.790Z,76.43
2017-12-08T13:04:58.807Z,122.63
2017-12-08T13:07:27.045Z,110.00
2017-12-08T13:09:55.391Z,94.17
2017-12-08T13:12:23.610Z,116.13
2017-12-08T13:14:52.679Z,101.83
2017-12-08T13:17:22.732Z,97.77
2017-12-08T13:19:52.854Z,101.20
2017-12-08T13:22:22.546Z,115.37
2017-12-08T13:24:51.238Z,106.17
2017-12-08T13:27:19.729Z,93.47
2017-12-08T13:29:48.303Z,90.43
2017-12-08T13:32:17.907Z,92.87
2017-12-08T13:34:46.416Z,99.53
2017-12-08T13:37:15.063Z,94.47
2017-12-08T13:39:44.350Z,91.40
2017-12-08T13:42:13.867Z,99.40
2017-12-08T13:44:42.394Z,87.53
2017-12-08T13:47:11.865Z,98.60
2017-12-08T13:49:41.564Z,88.43
2017-12-08T13:52:09.965Z,74.97
2017-12-08T13:54:51.459Z,76.60
2017-12-08T13:57:21.162Z,87.80
2017-12-08T13:59:49.755Z,90.70
2017-12-08T14:02:19.318Z,119.63
2017-12-08T14:04:48.926Z,96.17
2017-12-08T14:07:18.567Z,102.93
2017-12-08T14:09:47.474Z,109.93
2017-12-08T14:12:17.344Z,105.57
2017-12-08T14:14:47.352Z,97.77
2017-12-08T14:17:17.285Z,100.83
2017-12-08T14:19:47.202Z,104.83
2017-12-08T14:22:17.304Z,102.67
2017-12-08T14:24:46.318Z,98.23
2017-12-08T14:27:15.212Z,82.77
2017-12-08T14:29:45.122Z,80.00
2017-12-08T14:32:14.189Z,78.67
2017-12-08T14:34:43.930Z,82.00
2017-12-08T14:37:13.149Z,80.30
2017-12-08T14:39:43.217Z,74.63
2017-12-08T14:42:12.936Z,78.30
2017-12-08T14:44:42.138Z,97.37
2017-12-08T14:47:11.327Z,96.00
2017-12-08T14:49:40.306Z,107.07
2017-12-08T14:52:09.330Z,85.40
2017-12-08T14:54:37.603Z,84.60
2017-12-08T14:57:06.713Z,101.17
2017-12-08T14:59:34.974Z,98.60
2017-12-08T15:02:03.279Z,93.50
2017-12-08T15:04:31.491Z,106.83
2017-12-08T15:07:00.628Z,95.77
2017-12-08T15:09:28.982Z,109.10
2017-12-08T15:11:57.243Z,112.50
2017-12-08T15:14:26.272Z,93.40
2017-12-08T15:16:54.506Z,103.70
2017-12-08T15:19:22.908Z,108.70
2017-12-08T15:21:51.170Z,104.70
2017-12-08T15:24:20.197Z,105.40
2017-12-08T15:26:48.476Z,118.93
2017-12-08T15:29:16.847Z,111.57
2017-12-08T15:31:45.081Z,111.33
2017-12-08T15:34:14.098Z,103.03
2017-12-08T15:36:42.367Z,119.50
2017-12-08T15:39:10.666Z,117.37
2017-12-08T15:41:40.467Z,113.93
2017-12-08T15:44:08.793Z,106.93
2017-12-08T15:46:37.050Z,110.63
2017-12-08T15:49:05.325Z,108.23
2017-12-08T15:51:33.624Z,111.43
2017-12-08T15:54:01.960Z,104.23
2017-12-08T15:56:30.260Z,98.17
2017-12-08T15:58:58.538Z,115.47
2017-12-08T16:01:26.951Z,101.80
2017-12-08T16:03:55.979Z,116.87
2017-12-08T16:06:24.251Z,109.97
2017-12-08T16:08:52.536Z,105.83
2017-12-08T16:11:21.421Z,100.23
2017-12-08T16:13:49.700Z,106.53
2017-12-08T16:16:17.989Z,99.87
2017-12-08T16:18:46.298Z,106.67
2017-12-08T16:21:14.643Z,89.27
2017-12-08T16:23:42.923Z,104.73
2017-12-08T16:26:11.176Z,108.73
2017-12-08T16:28:39.470Z,113.53
2017-12-08T16:31:08.034Z,121.80
2017-12-08T16:33:36.266Z,101.63
2017-12-08T16:36:04.556Z,105.93
2017-12-08T16:38:33.571Z,108.63
2017-12-08T16:41:01.835Z,124.40
2017-12-08T16:43:30.098Z,107.67
2017-12-08T16:45:59.119Z,94.03
2017-12-08T16:48:27.359Z,118.70
2017-12-08T16:50:56.407Z,103.37
2017-12-08T16:53:24.671Z,104.57
2017-12-08T16:55:52.956Z,106.93
2017-12-08T16:58:21.248Z,107.87
2017-12-08T17:00:50.338Z,106.40
2017-12-08T17:03:18.570Z,127.90
2017-12-08T17:05:46.818Z,120.50
2017-12-08T17:08:15.091Z,127.50
2017-12-08T17:10:43.370Z,127.40
2017-12-08T17:13:12.415Z,116.77
2017-12-08T17:15:40.663Z,122.23
2017-12-08T17:18:08.966Z,121.70
2017-12-08T17:20:37.222Z,114.10
2017-12-08T17:23:05.478Z,127.70
2017-12-08T17:25:34.490Z,119.43
2017-12-08T17:28:02.758Z,109.93
2017-12-08T17:30:31.040Z,114.73
2017-12-08T17:32:59.318Z,109.73
2017-12-08T17:35:27.687Z,108.07
2017-12-08T17:37:55.959Z,114.07
2017-12-08T17:40:24.554Z,159.37
2017-12-08T17:42:52.871Z,115.73
2017-12-08T17:45:21.137Z,100.70
2017-12-08T17:47:49.411Z,96.57
2017-12-08T17:50:17.675Z,108.80
2017-12-08T17:52:45.972Z,92.20
2017-12-08T17:55:15.430Z,94.63
2017-12-08T17:57:43.699Z,96.37
2017-12-08T18:00:11.978Z,112.97
2017-12-08T18:02:40.239Z,116.97
2017-12-08T18:05:08.694Z,95.13
2017-12-08T18:07:36.931Z,113.00
2017-12-08T18:10:05.981Z,101.00
2017-12-08T18:12:34.256Z,76.93
2017-12-08T18:15:03.293Z,109.20
2017-12-08T18:17:31.856Z,105.20
2017-12-08T18:20:00.108Z,105.37
2017-12-08T18:22:30.074Z,89.67
2017-12-08T18:24:58.334Z,128.23
2017-12-08T18:27:26.617Z,122.77
2017-12-08T18:29:54.929Z,105.60
2017-12-08T18:32:23.204Z,109.17
2017-12-08T18:34:51.511Z,108.83
2017-12-08T18:37:20.538Z,110.43
2017-12-08T18:39:48.799Z,109.90
2017-12-08T18:42:17.114Z,101.07
2017-12-08T18:47:20.157Z,93.40
2017-12-08T18:49:49.191Z,26.23
2017-12-08T18:52:17.448Z,67.10
2017-12-08T18:54:45.699Z,23.50
2017-12-08T18:57:14.721Z,41.10
2017-12-08T18:59:42.970Z,19.70
2017-12-08T19:02:11.247Z,29.87
2017-12-08T19:04:40.370Z,18.90
2017-12-08T19:07:08.621Z,14.47
2017-12-08T19:09:36.982Z,23.40
2017-12-08T19:12:05.349Z,42.77
2017-12-08T19:14:33.656Z,24.03
2017-12-08T19:17:01.946Z,24.43
2017-12-08T19:19:30.403Z,23.37
2017-12-08T19:21:58.656Z,31.27
2017-12-08T19:24:27.063Z,26.27
2017-12-08T19:26:56.090Z,21.80
2017-12-08T19:29:24.333Z,21.13
2017-12-08T19:31:52.639Z,17.33
2017-12-08T19:34:21.614Z,47.77
2017-12-08T19:36:49.898Z,22.53
2017-12-08T19:39:18.168Z,14.63
2017-12-08T19:41:46.433Z,18.83
2017-12-08T19:44:15.477Z,26.93
2017-12-08T19:46:43.791Z,18.60
2017-12-08T19:49:12.233Z,27.80
2017-12-08T19:51:40.516Z,36.00
2017-12-08T19:54:08.817Z,20.07
2017-12-08T19:56:37.205Z,18.60
2017-12-08T19:59:06.241Z,20.57
2017-12-08T20:01:34.573Z,18.43
2017-12-08T20:04:03.574Z,24.43
2017-12-08T20:06:32.600Z,17.83
2017-12-08T20:09:00.817Z,43.13
2017-12-08T20:11:29.422Z,24.37
2017-12-08T20:13:58.456Z,49.83
2017-12-08T20:16:26.796Z,68.33
2017-12-08T20:18:55.070Z,18.90
2017-12-08T20:27:20.069Z,108.10
2017-12-08T20:29:49.244Z,100.10
2017-12-08T20:32:17.969Z,105.63
2017-12-08T20:34:46.381Z,94.73
2017-12-08T20:37:14.618Z,97.53
2017-12-08T20:39:43.684Z,110.50
2017-12-08T20:42:11.926Z,102.17
2017-12-08T20:44:40.179Z,94.03
2017-12-08T20:47:08.504Z,117.30
2017-12-08T20:49:36.814Z,104.97
2017-12-08T20:52:05.092Z,87.40
2017-12-08T20:54:34.204Z,81.07
2017-12-08T20:57:03.337Z,87.27
2017-12-08T20:59:31.550Z,93.80
2017-12-08T21:01:59.859Z,95.10
2017-12-08T21:04:28.860Z,91.00
2017-12-08T21:06:57.154Z,97.07
2017-12-08T21:09:25.435Z,90.63
2017-12-08T21:11:53.692Z,102.03
2017-12-08T21:14:21.944Z,99.70
2017-12-08T21:16:50.230Z,105.47
2017-12-08T21:19:18.480Z,123.30
2017-12-08T21:21:46.818Z,111.63
2017-12-08T21:24:15.083Z,105.30
2017-12-08T21:26:43.413Z,110.53
2017-12-08T21:29:11.674Z,112.63
2017-12-08T21:31:39.943Z,130.33
2017-12-08T21:34:08.204Z,127.67
2017-12-08T21:36:36.463Z,100.13
2017-12-08T21:39:04.733Z,112.87
2017-12-08T21:41:33.013Z,92.23
2017-12-08T21:44:01.278Z,120.83
2017-12-08T21:46:29.591Z,90.60
2017-12-08T21:48:57.843Z,90.43
2017-12-08T21:51:26.073Z,90.73
2017-12-08T21:53:55.142Z,102.70
2017-12-08T21:56:23.382Z,92.43
2017-12-08T21:58:51.649Z,93.33
2017-12-08T22:01:19.921Z,95.73
2017-12-08T22:03:48.199Z,98.73
2017-12-08T22:06:16.481Z,85.10
2017-12-08T22:08:44.763Z,100.47
2017-12-08T22:11:13.021Z,89.33
2017-12-08T22:13:41.307Z,96.77
2017-12-08T22:16:09.561Z,106.17
2017-12-08T22:18:37.816Z,102.97
2017-12-08T22:21:06.837Z,109.00
2017-12-08T22:23:35.078Z,108.87
2017-12-08T22:26:03.415Z,98.73
2017-12-08T22:28:32.784Z,96.07
2017-12-08T22:31:01.798Z,116.97
2017-12-08T22:33:30.071Z,106.13
2017-12-08T22:35:58.344Z,105.97
2017-12-08T22:38:26.633Z,118.37
2017-12-08T22:40:54.923Z,93.00
2017-12-08T22:43:23.168Z,95.57
2017-12-08T22:45:51.414Z,110.97
2017-12-08T22:48:20.442Z,121.83
2017-12-08T22:50:48.686Z,114.60
2017-12-08T22:53:17.751Z,115.97
2017-12-08T22:55:45.955Z,108.17
2017-12-08T22:58:14.202Z,100.47
2017-12-08T23:00:42.448Z,108.33
2017-12-08T23:03:10.726Z,103.33
2017-12-08T23:05:40.635Z,101.93
2017-12-08T23:08:08.878Z,87.67
2017-12-08T23:10:37.873Z,93.73
2017-12-08T23:13:06.113Z,93.37
2017-12-08T23:15:34.375Z,85.17
2017-12-08T23:18:02.722Z,96.50
2017-12-08T23:20:30.961Z,97.80
2017-12-08T23:22:59.986Z,107.63
2017-12-08T23:25:28.233Z,109.00
2017-12-08T23:27:57.233Z,98.57
2017-12-08T23:30:25.594Z,86.97
2017-12-08T23:32:54.591Z,98.53
2017-12-08T23:35:23.615Z,97.67
2017-12-08T23:37:51.861Z,111.50
2017-12-08T23:40:20.991Z,115.77
2017-12-08T23:42:50.205Z,107.73
2017-12-08T23:45:18.446Z,105.10
2017-12-08T23:47:46.705Z,100.57
2017-12-08T23:50:15.714Z,100.73
2017-12-08T23:52:43.976Z,101.60
2017-12-08T23:55:12.977Z,102.50
2017-12-08T23:57:41.243Z,116.53
